Hoisington, Kansas
Current Conditions -  °F | °C
As of 6:15 PM on Saturday 25 Oct 2014 (Local Time) from KGBD Reporting Station
Clear Clear  
Wind Chill: 82°   Ceiling: Unl
Heat Index: 82°   Visibility: 10mi
Dew Point: 54°   Wind: 10mph
Humidity: 37%   Direction: 170°S
Pressure: 29.97"   Gusts: NA
Location:  38.52°N, 98.78°W
Report Text: KGBD 252315Z AUTO 17009KT 10SM CLR 28/12 A2997 RMK AO1
Loading
Personal Weather Stations






























Interactive Weather Map
Tropical Storm Tracking
New forecast layout! Learn more

10-Day Weather Forecast

Advertisements
Track Severe Weather on mobile